Time;durP1;ratioP1;P1;durP2;ratioP2;P2;SDS_P1;SDS_P2;PMS_P1;PMS_P2;Temp;Humidity;BMP_temperature;BMP_pressure;BME280_temperature;BME280_humidity;BME280_pressure;Samples;Min_cycle;Max_cycle;Signal;HPM_P1;HPM_P2
2021/08/25 00:02:05;;;;;;;9.30;8.20;;;20.30;58.70;;;;;;4974351;28;20500;-50
2021/08/25 00:04:31;;;;;;;10.77;9.77;;;20.30;58.80;;;;;;4974932;28;20435;-52
2021/08/25 00:06:56;;;;;;;9.43;8.53;;;20.20;58.60;;;;;;4973896;28;20840;-52
2021/08/25 00:09:22;;;;;;;9.13;8.33;;;20.20;58.80;;;;;;4973400;28;20206;-52
2021/08/25 00:11:47;;;;;;;9.37;8.57;;;20.20;58.80;;;;;;4973891;28;20290;-51
2021/08/25 00:14:13;;;;;;;10.20;9.10;;;20.20;58.80;;;;;;4985164;28;20672;-48
2021/08/25 00:16:39;;;;;;;11.97;10.83;;;20.10;58.70;;;;;;4988741;28;20199;-50
2021/08/25 00:19:04;;;;;;;9.20;8.40;;;20.20;58.80;;;;;;4974409;28;20223;-51
2021/08/25 00:21:30;;;;;;;9.87;8.97;;;20.10;58.90;;;;;;4991383;28;20218;-51
2021/08/25 00:23:56;;;;;;;9.43;8.63;;;20.10;58.60;;;;;;4993184;28;20309;-51
2021/08/25 00:26:21;;;;;;;10.53;9.63;;;20.10;58.70;;;;;;4993747;28;20534;-47
2021/08/25 00:28:47;;;;;;;10.70;9.80;;;20.10;58.80;;;;;;4993576;28;20194;-47
2021/08/25 00:31:14;;;;;;;9.67;8.87;;;20.10;58.80;;;;;;4993927;28;20226;-51
2021/08/25 00:33:40;;;;;;;9.47;8.47;;;20.00;59.20;;;;;;4992599;28;20202;-49
2021/08/25 00:36:06;;;;;;;9.90;8.87;;;20.00;58.50;;;;;;4992542;28;20425;-50
2021/08/25 00:38:31;;;;;;;10.20;8.77;;;19.90;58.40;;;;;;4993387;28;20418;-51
2021/08/25 00:40:58;;;;;;;9.73;8.80;;;19.80;58.80;;;;;;4993680;28;20651;-50
2021/08/25 00:43:23;;;;;;;9.93;9.03;;;19.80;58.70;;;;;;4992768;28;20230;-49
2021/08/25 00:45:49;;;;;;;8.77;8.07;;;19.80;58.80;;;;;;4993590;28;20444;-50
2021/08/25 00:48:19;;;;;;;9.67;8.87;;;19.50;59.50;;;;;;4993146;28;20214;-50
2021/08/25 00:50:49;;;;;;;10.30;9.40;;;19.50;59.60;;;;;;4993591;28;20531;-48
2021/08/25 00:53:15;;;;;;;9.57;8.17;;;19.60;59.40;;;;;;4982288;28;20446;-46
2021/08/25 00:55:41;;;;;;;9.17;8.30;;;19.70;59.30;;;;;;4973720;28;20494;-47
2021/08/25 00:58:08;;;;;;;8.77;8.00;;;19.70;59.80;;;;;;4973617;28;20195;-50
2021/08/25 01:00:42;;;;;;;8.97;8.17;;;19.70;59.10;;;;;;4972055;28;20207;-49
2021/08/25 01:03:17;;;;;;;9.80;8.90;;;19.70;59.10;;;;;;4973404;28;21005;-47
2021/08/25 01:05:45;;;;;;;9.83;8.83;;;19.60;59.10;;;;;;4973616;28;20497;-47
2021/08/25 01:08:12;;;;;;;9.30;8.40;;;19.60;59.10;;;;;;4973360;28;20435;-47
2021/08/25 01:10:38;;;;;;;9.53;8.63;;;19.60;59.10;;;;;;4973721;28;20418;-52
2021/08/25 01:13:06;;;;;;;10.37;9.47;;;19.60;59.10;;;;;;4973661;28;20470;-48
2021/08/25 01:15:33;;;;;;;8.90;8.10;;;19.60;59.10;;;;;;4992870;28;20484;-52
2021/08/25 01:18:03;;;;;;;9.77;8.80;;;19.60;59.00;;;;;;4978280;28;20430;-48
2021/08/25 01:20:31;;;;;;;10.00;9.10;;;19.50;59.00;;;;;;4982041;28;20512;-51
2021/08/25 01:22:58;;;;;;;9.83;8.93;;;19.50;59.40;;;;;;4992276;28;20481;-48
2021/08/25 01:25:26;;;;;;;9.60;8.70;;;19.50;59.50;;;;;;4992652;28;20772;-48
2021/08/25 01:28:01;;;;;;;8.77;7.87;;;19.40;59.50;;;;;;4990217;28;20462;-47
2021/08/25 01:30:30;;;;;;;9.77;8.87;;;19.40;59.60;;;;;;4992979;28;20423;-50
2021/08/25 01:32:59;;;;;;;10.23;9.00;;;19.40;59.50;;;;;;4992279;28;20427;-52
2021/08/25 01:35:38;;;;;;;10.40;9.50;;;19.30;59.50;;;;;;4992402;28;20534;-52
2021/08/25 01:38:04;;;;;;;9.30;8.57;;;19.30;59.50;;;;;;4991828;28;20442;-47
2021/08/25 01:40:35;;;;;;;8.57;7.87;;;19.30;59.50;;;;;;4992599;28;20528;-51
2021/08/25 01:43:05;;;;;;;9.33;8.53;;;19.20;59.40;;;;;;4991960;28;20579;-51
2021/08/25 01:45:33;;;;;;;9.73;8.87;;;19.20;59.50;;;;;;4992277;28;20477;-51
2021/08/25 01:47:58;;;;;;;9.70;8.80;;;19.20;59.50;;;;;;4991725;28;20504;-52
2021/08/25 01:50:24;;;;;;;9.73;8.90;;;19.10;59.50;;;;;;4992597;28;20472;-52
2021/08/25 01:52:50;;;;;;;11.17;10.17;;;19.10;59.50;;;;;;4983735;28;20202;-49
2021/08/25 01:55:16;;;;;;;10.03;9.13;;;19.10;59.60;;;;;;4970922;28;20664;-51
2021/08/25 01:57:41;;;;;;;10.43;9.40;;;19.10;59.40;;;;;;4972625;28;20195;-52
2021/08/25 02:00:08;;;;;;;10.67;9.57;;;19.00;59.30;;;;;;4973099;28;20438;-51
2021/08/25 02:02:33;;;;;;;9.30;8.40;;;19.00;59.30;;;;;;4972344;28;20227;-51
2021/08/25 02:04:59;;;;;;;10.70;9.63;;;18.90;59.20;;;;;;4972435;28;20434;-52
2021/08/25 02:07:25;;;;;;;9.87;8.80;;;18.90;59.40;;;;;;4972433;28;20195;-52
2021/08/25 02:09:50;;;;;;;10.80;9.80;;;18.90;59.60;;;;;;4973074;28;20242;-52
2021/08/25 02:12:16;;;;;;;11.30;8.77;;;18.90;59.90;;;;;;4972215;28;20246;-51
2021/08/25 02:14:41;;;;;;;10.20;9.20;;;18.80;60.10;;;;;;4986523;28;20198;-50
2021/08/25 02:17:07;;;;;;;10.00;9.17;;;18.80;60.00;;;;;;4983909;28;20202;-49
2021/08/25 02:19:33;;;;;;;9.77;8.77;;;18.80;59.90;;;;;;4973001;28;20588;-51
2021/08/25 02:21:59;;;;;;;8.90;8.10;;;18.80;59.80;;;;;;4990522;28;20206;-49
2021/08/25 02:24:25;;;;;;;9.03;8.23;;;18.80;59.80;;;;;;4992189;28;20450;-48
2021/08/25 02:26:50;;;;;;;12.20;8.90;;;18.80;59.80;;;;;;4991372;28;20465;-51
2021/08/25 02:29:16;;;;;;;10.63;9.20;;;18.80;59.70;;;;;;4991737;28;20225;-52
2021/08/25 02:31:42;;;;;;;9.70;8.73;;;18.80;59.70;;;;;;4991821;28;20237;-48
2021/08/25 02:34:07;;;;;;;9.43;8.53;;;18.80;59.80;;;;;;4991886;28;20584;-50
2021/08/25 02:36:33;;;;;;;10.30;9.30;;;18.80;59.90;;;;;;4991743;28;20198;-47
2021/08/25 02:38:58;;;;;;;9.03;8.23;;;18.70;59.80;;;;;;4993115;28;20194;-50
2021/08/25 02:41:24;;;;;;;10.17;9.27;;;18.60;59.70;;;;;;4995843;28;20201;-47
2021/08/25 02:43:50;;;;;;;9.83;8.83;;;18.60;59.60;;;;;;4995351;28;20273;-51
2021/08/25 02:46:16;;;;;;;10.20;9.17;;;18.60;59.80;;;;;;4994168;28;20194;-49
2021/08/25 02:48:42;;;;;;;10.40;9.50;;;18.60;59.90;;;;;;4995562;28;20646;-47
2021/08/25 02:51:08;;;;;;;10.60;9.60;;;18.50;60.10;;;;;;4995626;28;20428;-49
2021/08/25 02:53:34;;;;;;;10.63;9.60;;;18.50;60.10;;;;;;4981747;28;20231;-51
2021/08/25 02:55:59;;;;;;;10.20;9.40;;;18.50;60.20;;;;;;4975737;28;20505;-48
2021/08/25 02:58:25;;;;;;;14.37;9.63;;;18.50;60.20;;;;;;4975585;28;20670;-47
2021/08/25 03:00:51;;;;;;;9.80;8.90;;;18.50;60.30;;;;;;4976032;28;20192;-48
2021/08/25 03:03:16;;;;;;;11.93;9.07;;;18.50;60.20;;;;;;4975572;28;20668;-49
2021/08/25 03:05:42;;;;;;;10.13;9.20;;;18.50;60.20;;;;;;4975786;28;20250;-51
2021/08/25 03:08:07;;;;;;;10.50;8.33;;;18.50;60.20;;;;;;4975449;28;20191;-47
2021/08/25 03:10:33;;;;;;;9.43;8.53;;;18.50;60.30;;;;;;4975829;28;20192;-48
2021/08/25 03:12:59;;;;;;;12.03;9.70;;;18.50;60.30;;;;;;4974497;28;20921;-51
2021/08/25 03:15:25;;;;;;;10.57;8.47;;;18.50;60.40;;;;;;4995056;28;20277;-52
2021/08/25 03:17:50;;;;;;;10.93;9.93;;;18.50;60.30;;;;;;4981472;28;20191;-47
2021/08/25 03:20:16;;;;;;;10.77;9.67;;;18.50;60.30;;;;;;4982504;28;20425;-47
2021/08/25 03:22:42;;;;;;;10.80;9.80;;;18.40;60.50;;;;;;4994475;28;20636;-47
2021/08/25 03:25:08;;;;;;;9.87;8.90;;;18.40;60.70;;;;;;4994792;28;20706;-52
2021/08/25 03:27:34;;;;;;;10.33;9.23;;;18.40;60.60;;;;;;4994667;28;20209;-47
2021/08/25 03:30:00;;;;;;;10.57;9.57;;;18.40;60.60;;;;;;4994892;28;20438;-47
2021/08/25 03:32:26;;;;;;;11.10;9.20;;;18.40;60.50;;;;;;4994352;28;20834;-47
2021/08/25 03:34:53;;;;;;;10.40;9.30;;;18.40;60.40;;;;;;4994631;28;20195;-47
2021/08/25 03:37:18;;;;;;;10.27;9.27;;;18.40;60.20;;;;;;4994503;28;20191;-47
2021/08/25 03:39:44;;;;;;;11.17;10.07;;;18.30;60.10;;;;;;4993179;28;20991;-49
2021/08/25 03:42:10;;;;;;;12.83;8.97;;;18.30;60.10;;;;;;4993135;28;20240;-51
2021/08/25 03:44:39;;;;;;;11.30;8.10;;;18.30;60.10;;;;;;4994855;28;20332;-46
2021/08/25 03:47:05;;;;;;;10.60;9.60;;;18.30;60.10;;;;;;4994132;28;20198;-47
2021/08/25 03:49:31;;;;;;;10.07;9.10;;;18.30;60.10;;;;;;4994169;28;20521;-47
2021/08/25 03:51:57;;;;;;;11.73;9.13;;;18.30;60.10;;;;;;4993884;28;20512;-50
2021/08/25 03:54:23;;;;;;;9.70;8.50;;;18.20;59.90;;;;;;4975527;28;20994;-48
2021/08/25 03:56:48;;;;;;;9.37;8.50;;;18.20;59.90;;;;;;4974456;28;20542;-47
2021/08/25 03:59:14;;;;;;;10.67;9.57;;;18.10;59.90;;;;;;4975152;28;20690;-47
2021/08/25 04:01:41;;;;;;;11.27;10.17;;;18.10;60.10;;;;;;4973316;28;20706;-48
2021/08/25 04:04:08;;;;;;;11.33;9.90;;;18.10;60.20;;;;;;4974577;28;20762;-49
2021/08/25 04:06:36;;;;;;;12.13;10.93;;;18.10;60.50;;;;;;4973024;28;20533;-51
2021/08/25 04:09:02;;;;;;;9.50;8.53;;;18.10;60.50;;;;;;4974400;28;20434;-47
2021/08/25 04:11:27;;;;;;;10.80;9.70;;;18.10;60.20;;;;;;4974925;28;20869;-52
2021/08/25 04:13:53;;;;;;;10.30;9.30;;;18.10;60.20;;;;;;4981977;28;20206;-48
2021/08/25 04:16:19;;;;;;;10.57;9.60;;;18.00;60.10;;;;;;4993219;28;20281;-52
2021/08/25 04:18:44;;;;;;;10.10;9.17;;;18.00;60.00;;;;;;4974334;28;20267;-49
2021/08/25 04:21:10;;;;;;;10.30;8.47;;;18.00;60.00;;;;;;4988859;28;20284;-50
2021/08/25 04:23:35;;;;;;;11.27;9.70;;;18.00;60.10;;;;;;4993392;28;20561;-46
2021/08/25 04:26:01;;;;;;;10.50;9.60;;;18.00;60.10;;;;;;4993798;28;20191;-49
2021/08/25 04:28:27;;;;;;;9.93;8.90;;;18.00;60.00;;;;;;4993506;28;20253;-51
2021/08/25 04:30:52;;;;;;;10.13;9.13;;;18.00;60.10;;;;;;4994227;28;20194;-51
2021/08/25 04:33:18;;;;;;;11.40;10.37;;;17.90;60.00;;;;;;4991497;28;20661;-47
2021/08/25 04:35:43;;;;;;;9.87;8.90;;;17.90;60.00;;;;;;4993415;28;20261;-52
2021/08/25 04:38:09;;;;;;;10.27;9.27;;;17.90;60.80;;;;;;4993390;28;20226;-51
2021/08/25 04:40:35;;;;;;;11.73;10.63;;;17.90;60.10;;;;;;4993499;28;20186;-52
2021/08/25 04:43:00;;;;;;;15.07;10.77;;;17.90;60.30;;;;;;4993045;28;20254;-52
2021/08/25 04:45:27;;;;;;;10.33;9.30;;;17.90;60.40;;;;;;4993204;28;20206;-52
2021/08/25 04:47:52;;;;;;;11.53;10.33;;;17.90;60.60;;;;;;4993206;28;20233;-51
2021/08/25 04:50:18;;;;;;;10.00;9.10;;;17.90;61.10;;;;;;4993272;28;20445;-51
2021/08/25 04:52:43;;;;;;;11.73;10.63;;;17.90;61.60;;;;;;4986297;28;20230;-49
2021/08/25 04:55:09;;;;;;;11.10;10.00;;;17.90;62.00;;;;;;4973699;28;20611;-48
2021/08/25 04:57:35;;;;;;;10.40;9.40;;;17.90;61.90;;;;;;4973629;28;20195;-51
2021/08/25 05:00:00;;;;;;;9.87;8.93;;;17.80;61.50;;;;;;4972447;28;20434;-51
2021/08/25 05:02:26;;;;;;;11.50;10.40;;;17.90;61.40;;;;;;4971009;28;20222;-51
2021/08/25 05:04:52;;;;;;;11.47;10.27;;;17.90;61.20;;;;;;4973769;28;20203;-48
2021/08/25 05:07:17;;;;;;;10.30;9.30;;;17.90;61.40;;;;;;4973145;28;20187;-50
2021/08/25 05:09:43;;;;;;;11.73;9.83;;;17.90;61.40;;;;;;4974021;28;20733;-50
2021/08/25 05:12:08;;;;;;;13.23;10.33;;;18.00;61.60;;;;;;4973464;28;20278;-50
2021/08/25 05:14:35;;;;;;;10.20;9.17;;;18.00;61.50;;;;;;4986300;28;20198;-47
2021/08/25 05:17:02;;;;;;;10.90;9.90;;;18.00;61.60;;;;;;4985977;28;20195;-49
2021/08/25 05:19:27;;;;;;;11.50;10.30;;;18.10;61.70;;;;;;4973637;28;20450;-49
2021/08/25 05:21:53;;;;;;;10.23;9.23;;;18.10;61.60;;;;;;4992445;28;20484;-50
2021/08/25 05:24:20;;;;;;;20.13;11.77;;;18.10;62.40;;;;;;4993124;28;20313;-50
2021/08/25 05:26:46;;;;;;;10.40;9.50;;;18.20;61.80;;;;;;4990359;28;20290;-49
2021/08/25 05:29:12;;;;;;;12.40;11.17;;;18.20;61.80;;;;;;4992822;28;20430;-47
2021/08/25 05:31:37;;;;;;;11.57;10.40;;;18.20;61.70;;;;;;4992803;28;20418;-52
2021/08/25 05:34:03;;;;;;;11.10;10.00;;;18.30;61.80;;;;;;4992624;28;20199;-48
2021/08/25 05:36:28;;;;;;;12.00;10.90;;;18.30;61.80;;;;;;4992425;28;20194;-50
2021/08/25 05:38:54;;;;;;;10.83;9.77;;;18.30;61.80;;;;;;4992451;28;20226;-47
2021/08/25 05:41:19;;;;;;;11.60;10.50;;;18.40;61.80;;;;;;4992483;28;20627;-47
2021/08/25 05:43:45;;;;;;;13.67;10.30;;;18.40;61.80;;;;;;4992109;28;20222;-49
2021/08/25 05:46:11;;;;;;;13.03;11.10;;;18.40;61.80;;;;;;4992240;28;20265;-52
2021/08/25 05:48:36;;;;;;;11.00;9.90;;;18.50;61.90;;;;;;4992324;28;20226;-49
2021/08/25 05:51:02;;;;;;;12.60;11.30;;;18.50;61.70;;;;;;4992442;28;20195;-47
2021/08/25 05:53:27;;;;;;;10.33;9.43;;;18.60;61.60;;;;;;4977983;28;20191;-47
2021/08/25 05:55:53;;;;;;;12.33;11.13;;;18.70;61.70;;;;;;4978182;28;20194;-50
2021/08/25 05:58:19;;;;;;;12.27;10.97;;;18.70;61.80;;;;;;4980266;28;20301;-49
2021/08/25 06:00:44;;;;;;;12.57;11.10;;;18.80;61.70;;;;;;4972829;28;20191;-49
2021/08/25 06:03:10;;;;;;;12.40;11.17;;;18.80;61.30;;;;;;4972381;28;20222;-46
2021/08/25 06:05:36;;;;;;;11.37;10.27;;;18.90;61.30;;;;;;4972908;28;20195;-48
2021/08/25 06:08:01;;;;;;;12.23;11.00;;;18.80;61.50;;;;;;4972435;28;20298;-51
2021/08/25 06:10:27;;;;;;;15.97;11.50;;;18.50;62.60;;;;;;4972593;28;20540;-47
2021/08/25 06:12:53;;;;;;;11.57;10.50;;;18.30;63.90;;;;;;4972237;28;20318;-47
2021/08/25 06:15:18;;;;;;;12.00;10.90;;;18.30;64.50;;;;;;4984151;28;20767;-52
2021/08/25 06:17:44;;;;;;;12.03;10.83;;;18.40;63.80;;;;;;4971301;28;20199;-51
2021/08/25 06:20:11;;;;;;;12.50;11.30;;;18.10;64.20;;;;;;4977545;28;20274;-51
2021/08/25 06:22:36;;;;;;;11.87;10.67;;;18.10;64.60;;;;;;4991569;28;20489;-48
2021/08/25 06:25:02;;;;;;;12.80;10.70;;;18.20;64.90;;;;;;4991717;28;20426;-51
2021/08/25 06:27:28;;;;;;;13.70;10.50;;;18.30;64.30;;;;;;4991564;28;20201;-52
2021/08/25 06:29:53;;;;;;;12.90;11.80;;;18.50;63.90;;;;;;4991702;28;20422;-49
2021/08/25 06:32:19;;;;;;;12.57;11.37;;;18.40;64.00;;;;;;4991672;28;20205;-48
2021/08/25 06:34:45;;;;;;;12.60;11.30;;;18.50;64.10;;;;;;4991891;28;20662;-47
2021/08/25 06:37:10;;;;;;;11.63;10.43;;;18.70;63.70;;;;;;4991783;28;20217;-49
2021/08/25 06:39:36;;;;;;;12.23;10.60;;;19.00;63.10;;;;;;4991870;28;20202;-50
2021/08/25 06:42:02;;;;;;;11.43;10.43;;;19.20;62.40;;;;;;4991509;28;20190;-51
2021/08/25 06:44:28;;;;;;;10.83;9.73;;;19.50;62.00;;;;;;4990064;28;20693;-47
2021/08/25 06:46:54;;;;;;;12.30;10.47;;;19.80;61.40;;;;;;4991424;28;20198;-51
2021/08/25 06:49:19;;;;;;;12.83;10.27;;;20.00;60.40;;;;;;4992101;28;20433;-48
2021/08/25 06:51:45;;;;;;;10.63;9.63;;;20.30;59.50;;;;;;4990011;28;20650;-47
2021/08/25 06:54:11;;;;;;;10.70;9.80;;;20.50;58.90;;;;;;4973217;28;20246;-47
2021/08/25 06:56:36;;;;;;;10.77;9.70;;;20.70;58.60;;;;;;4972091;28;20199;-48
2021/08/25 06:59:02;;;;;;;10.60;9.70;;;20.90;58.20;;;;;;4971531;28;20635;-52
2021/08/25 07:01:28;;;;;;;11.50;10.30;;;21.10;57.80;;;;;;4972552;28;20198;-47
2021/08/25 07:03:53;;;;;;;9.07;8.27;;;21.20;57.30;;;;;;4971669;28;20735;-49
2021/08/25 07:06:19;;;;;;;10.07;9.03;;;21.40;57.30;;;;;;4972026;28;20199;-48
2021/08/25 07:08:45;;;;;;;9.30;8.50;;;21.50;56.90;;;;;;4970179;28;20205;-49
2021/08/25 07:11:11;;;;;;;8.90;8.00;;;21.70;56.50;;;;;;4970805;28;20950;-47
2021/08/25 07:13:37;;;;;;;9.57;8.67;;;21.80;55.80;;;;;;4976776;28;20468;-48
2021/08/25 07:16:02;;;;;;;9.60;8.67;;;22.00;55.50;;;;;;4991184;28;20191;-47
2021/08/25 07:18:28;;;;;;;9.20;8.43;;;22.10;54.40;;;;;;4973219;28;20210;-48
2021/08/25 07:20:54;;;;;;;8.50;7.70;;;22.10;54.80;;;;;;4983493;28;20243;-47
2021/08/25 07:23:19;;;;;;;9.63;8.73;;;22.30;54.70;;;;;;4990983;28;20226;-49
2021/08/25 07:25:45;;;;;;;9.57;7.53;;;22.50;54.20;;;;;;4994256;28;20277;-50
2021/08/25 07:28:11;;;;;;;9.43;8.33;;;22.70;54.10;;;;;;4994698;28;20194;-48
2021/08/25 07:30:37;;;;;;;9.50;8.60;;;22.80;53.70;;;;;;4994997;28;20191;-52
2021/08/25 07:33:02;;;;;;;8.40;7.60;;;22.80;53.40;;;;;;4994350;28;20196;-53
2021/08/25 07:35:31;;;;;;;8.00;7.30;;;22.80;53.60;;;;;;4994529;28;20197;-52
2021/08/25 07:37:57;;;;;;;8.40;7.60;;;23.10;53.40;;;;;;4992699;28;20191;-52
2021/08/25 07:40:23;;;;;;;8.40;7.70;;;23.20;53.10;;;;;;4994821;28;20426;-51
2021/08/25 07:42:49;;;;;;;8.40;7.70;;;23.30;53.00;;;;;;4994486;28;20478;-51
2021/08/25 07:45:15;;;;;;;8.20;6.53;;;23.50;52.60;;;;;;4994272;28;20477;-51
2021/08/25 07:47:40;;;;;;;8.40;7.60;;;23.60;53.10;;;;;;4994191;28;20551;-49
2021/08/25 07:50:08;;;;;;;8.60;7.80;;;23.80;53.20;;;;;;4994845;28;20611;-50
2021/08/25 07:52:34;;;;;;;8.07;7.37;;;23.90;52.10;;;;;;4989487;28;20278;-52
2021/08/25 07:55:00;;;;;;;7.67;7.07;;;24.10;52.70;;;;;;4975071;28;20529;-48
2021/08/25 07:57:25;;;;;;;7.13;6.53;;;24.20;52.80;;;;;;4974629;28;20183;-49
2021/08/25 07:59:51;;;;;;;8.13;7.33;;;24.30;52.30;;;;;;4975340;28;20196;-51
2021/08/25 08:02:16;;;;;;;7.10;6.40;;;24.40;51.70;;;;;;4974354;28;20223;-52
2021/08/25 08:04:42;;;;;;;6.70;6.10;;;24.50;51.30;;;;;;4972805;28;20207;-48
2021/08/25 08:07:07;;;;;;;6.37;5.87;;;24.60;51.60;;;;;;4974225;28;20754;-48
2021/08/25 08:09:33;;;;;;;7.43;6.03;;;24.60;51.50;;;;;;4974945;28;20195;-51
2021/08/25 08:11:58;;;;;;;9.27;6.37;;;24.80;51.00;;;;;;4973814;28;20239;-52
2021/08/25 08:14:25;;;;;;;7.07;6.47;;;25.00;50.40;;;;;;4986099;28;20225;-52
2021/08/25 08:16:55;;;;;;;7.43;6.73;;;25.00;49.60;;;;;;4988643;28;20202;-52
2021/08/25 08:19:23;;;;;;;7.10;6.40;;;24.80;50.20;;;;;;4974927;28;20431;-49
2021/08/25 08:21:49;;;;;;;7.43;6.23;;;24.90;50.20;;;;;;4992675;28;20426;-52
2021/08/25 08:24:16;;;;;;;6.80;6.30;;;25.10;50.20;;;;;;4993705;28;20832;-48
2021/08/25 08:26:41;;;;;;;6.47;5.80;;;25.20;50.10;;;;;;4993706;28;20421;-48
2021/08/25 08:29:07;;;;;;;7.90;6.50;;;25.30;49.10;;;;;;4993721;28;20426;-52
2021/08/25 08:31:33;;;;;;;6.20;5.60;;;25.40;48.50;;;;;;4992303;28;20199;-49
2021/08/25 08:33:58;;;;;;;6.50;5.90;;;25.50;49.70;;;;;;4993432;28;20202;-47
2021/08/25 08:36:24;;;;;;;6.63;5.43;;;25.70;50.40;;;;;;4992278;28;20195;-49
2021/08/25 08:38:50;;;;;;;9.70;5.70;;;25.70;48.20;;;;;;4992232;28;20194;-51
2021/08/25 08:41:16;;;;;;;6.00;5.50;;;25.70;47.50;;;;;;4993748;28;20773;-52
2021/08/25 08:43:47;;;;;;;7.00;6.40;;;25.70;47.50;;;;;;4992006;28;20584;-48
2021/08/25 08:46:14;;;;;;;6.47;5.97;;;25.90;48.00;;;;;;4993385;28;20266;-51
2021/08/25 08:48:40;;;;;;;6.67;6.07;;;26.10;48.20;;;;;;4992986;28;20422;-49
2021/08/25 08:51:08;;;;;;;6.13;5.57;;;26.10;47.90;;;;;;4993029;28;20426;-52
2021/08/25 08:53:34;;;;;;;5.73;5.03;;;26.30;47.00;;;;;;4978893;28;20427;-48
2021/08/25 08:55:59;;;;;;;5.50;5.00;;;26.30;45.80;;;;;;4973244;28;20762;-48
2021/08/25 08:58:25;;;;;;;6.20;5.63;;;26.10;45.20;;;;;;4971813;28;20554;-51
2021/08/25 09:00:50;;;;;;;5.03;4.63;;;25.60;45.90;;;;;;4974054;28;20268;-50
2021/08/25 09:03:27;;;;;;;4.80;4.23;;;25.70;46.20;;;;;;4973267;28;20811;-48
2021/08/25 09:06:01;;;;;;;4.33;3.93;;;26.00;45.50;;;;;;4973389;28;20207;-49
2021/08/25 09:08:31;;;;;;;4.67;4.27;;;26.40;45.40;;;;;;4973278;28;20430;-48
2021/08/25 09:11:16;;;;;;;5.37;4.97;;;26.60;44.60;;;;;;4973934;28;20514;-47
2021/08/25 09:13:48;;;;;;;4.83;4.43;;;26.80;44.40;;;;;;4977826;28;20469;-48
2021/08/25 09:16:27;;;;;;;5.10;4.70;;;26.90;45.50;;;;;;4992360;28;20484;-52
2021/08/25 09:19:00;;;;;;;4.40;4.10;;;26.80;42.90;;;;;;4973167;28;20480;-50
2021/08/25 09:21:38;;;;;;;5.77;3.80;;;26.30;43.80;;;;;;4989173;28;20830;-50
2021/08/25 09:24:07;;;;;;;4.40;4.00;;;26.50;44.20;;;;;;4991065;28;20551;-52
2021/08/25 09:26:35;;;;;;;6.37;4.73;;;26.70;44.40;;;;;;4992779;28;20790;-53
2021/08/25 09:29:20;;;;;;;4.50;4.10;;;26.90;42.90;;;;;;4992346;28;20423;-47
2021/08/25 09:31:50;;;;;;;4.93;4.43;;;26.80;41.90;;;;;;4992393;28;20449;-47
2021/08/25 09:34:24;;;;;;;6.80;4.40;;;26.70;41.30;;;;;;4992403;28;20434;-49
2021/08/25 09:37:09;;;;;;;4.40;4.00;;;26.90;41.50;;;;;;4992284;28;20460;-52
2021/08/25 09:39:46;;;;;;;6.63;4.80;;;27.20;43.30;;;;;;4992560;28;20996;-48
2021/08/25 09:42:16;;;;;;;5.00;4.60;;;27.40;41.40;;;;;;4992005;28;20426;-47
2021/08/25 09:44:42;;;;;;;5.17;4.53;;;27.60;40.50;;;;;;4992030;28;20449;-47
2021/08/25 09:47:07;;;;;;;4.43;4.03;;;27.40;38.70;;;;;;4991808;28;20422;-49
2021/08/25 09:49:33;;;;;;;6.30;4.30;;;27.50;40.10;;;;;;4991390;28;20433;-52
2021/08/25 09:51:59;;;;;;;4.93;4.43;;;27.50;39.70;;;;;;4991653;28;20705;-48
2021/08/25 09:54:24;;;;;;;8.30;3.90;;;27.80;39.60;;;;;;4972581;28;20427;-48
2021/08/25 09:56:53;;;;;;;5.17;4.47;;;28.10;41.40;;;;;;4972753;28;20205;-51
2021/08/25 09:59:20;;;;;;;4.83;4.43;;;28.30;38.40;;;;;;4973347;28;20183;-49
2021/08/25 10:01:46;;;;;;;3.97;3.67;;;28.10;38.10;;;;;;4972269;28;20778;-49
2021/08/25 10:04:15;;;;;;;4.50;4.10;;;28.00;37.40;;;;;;4973045;28;20502;-48
2021/08/25 10:06:44;;;;;;;4.87;3.63;;;27.90;37.30;;;;;;4971441;28;20446;-48
2021/08/25 10:09:10;;;;;;;6.20;4.07;;;27.80;37.00;;;;;;4972846;28;21002;-47
2021/08/25 10:11:42;;;;;;;4.67;4.10;;;27.60;37.30;;;;;;4972569;28;20477;-50
2021/08/25 10:14:16;;;;;;;4.20;3.90;;;27.50;37.40;;;;;;4981871;28;20492;-48
2021/08/25 10:16:47;;;;;;;4.30;3.90;;;27.70;38.10;;;;;;4986433;28;20997;-50
2021/08/25 10:19:33;;;;;;;4.30;3.90;;;28.00;38.20;;;;;;4972884;28;20442;-48
2021/08/25 10:22:00;;;;;;;4.50;4.10;;;28.40;38.20;;;;;;4979655;28;20775;-53
2021/08/25 10:24:26;;;;;;;4.73;4.33;;;28.50;37.30;;;;;;4991780;28;20445;-50
2021/08/25 10:26:58;;;;;;;4.60;4.13;;;28.80;38.60;;;;;;4991857;28;20503;-50
2021/08/25 10:29:25;;;;;;;6.33;4.50;;;28.70;37.70;;;;;;4992055;28;20195;-51
2021/08/25 10:31:54;;;;;;;5.17;4.47;;;28.50;36.80;;;;;;4991494;28;20474;-51
2021/08/25 10:34:25;;;;;;;4.93;4.47;;;28.40;38.20;;;;;;4991823;28;20437;-52
2021/08/25 10:36:51;;;;;;;4.80;4.40;;;28.50;38.20;;;;;;4991639;28;20425;-53
2021/08/25 10:39:29;;;;;;;5.20;4.70;;;28.60;37.60;;;;;;4992047;28;20418;-53
2021/08/25 10:41:59;;;;;;;5.33;4.83;;;28.40;35.70;;;;;;4991335;28;20425;-52
2021/08/25 10:44:46;;;;;;;4.90;4.50;;;28.10;36.40;;;;;;4990024;28;20438;-51
2021/08/25 10:47:17;;;;;;;4.70;4.30;;;27.90;36.10;;;;;;4991455;28;20446;-52
2021/08/25 10:49:48;;;;;;;5.17;4.60;;;27.80;36.80;;;;;;4991915;28;20434;-53
2021/08/25 10:52:13;;;;;;;5.10;4.60;;;27.80;37.40;;;;;;4988581;28;20485;-52
2021/08/25 10:54:49;;;;;;;5.23;4.73;;;27.70;37.10;;;;;;4970906;28;20930;-50
2021/08/25 10:57:17;;;;;;;5.87;4.50;;;27.50;37.30;;;;;;4971957;28;20187;-52
2021/08/25 10:59:43;;;;;;;6.03;5.13;;;27.80;38.80;;;;;;4973920;28;20565;-52
2021/08/25 11:02:10;;;;;;;5.30;4.80;;;27.80;37.40;;;;;;4974202;28;20789;-53
2021/08/25 11:04:36;;;;;;;5.20;4.70;;;28.10;39.60;;;;;;4975544;28;20433;-50
2021/08/25 11:07:13;;;;;;;4.60;4.20;;;28.30;37.10;;;;;;4975512;28;20430;-51
2021/08/25 11:09:50;;;;;;;5.70;4.60;;;28.40;37.10;;;;;;4974740;28;20199;-53
2021/08/25 11:12:20;;;;;;;4.60;4.20;;;28.50;34.20;;;;;;4982196;28;20468;-50
2021/08/25 11:14:49;;;;;;;4.83;4.33;;;28.50;33.50;;;;;;4994747;28;20766;-52
2021/08/25 11:17:23;;;;;;;5.27;4.37;;;28.40;33.60;;;;;;4986676;28;20433;-52
2021/08/25 11:20:04;;;;;;;4.17;3.77;;;28.30;34.50;;;;;;4978561;28;21019;-52
2021/08/25 11:22:32;;;;;;;4.47;4.03;;;28.30;34.30;;;;;;4994799;28;20491;-52
2021/08/25 11:25:02;;;;;;;3.93;3.60;;;28.60;34.50;;;;;;4994555;28;20469;-48
2021/08/25 11:27:49;;;;;;;4.93;4.23;;;29.00;35.70;;;;;;4994663;28;20433;-52
2021/08/25 11:30:20;;;;;;;5.93;4.70;;;29.40;36.40;;;;;;4994897;28;20557;-50
2021/08/25 11:32:52;;;;;;;5.57;4.43;;;29.70;33.60;;;;;;4994463;28;20437;-48
2021/08/25 11:35:25;;;;;;;6.10;5.03;;;29.70;33.60;;;;;;4993661;28;20975;-51
2021/08/25 11:37:53;;;;;;;4.60;4.20;;;29.60;31.00;;;;;;4994217;28;20441;-54
2021/08/25 11:40:22;;;;;;;10.90;4.40;;;29.40;32.00;;;;;;4995284;28;20438;-48
2021/08/25 11:42:48;;;;;;;4.97;4.47;;;29.50;31.90;;;;;;4994317;28;20489;-48
2021/08/25 11:45:18;;;;;;;5.50;4.50;;;29.50;31.90;;;;;;4994649;28;20500;-53
2021/08/25 11:47:52;;;;;;;4.83;4.20;;;29.70;32.50;;;;;;4994348;28;20213;-52
2021/08/25 11:50:24;;;;;;;4.60;4.20;;;29.80;32.10;;;;;;4995012;28;20816;-50
2021/08/25 11:52:50;;;;;;;5.20;4.13;;;29.80;32.20;;;;;;4987068;28;20442;-50
2021/08/25 11:55:17;;;;;;;5.37;4.70;;;29.80;32.20;;;;;;4975132;28;20430;-48
2021/08/25 11:57:50;;;;;;;7.20;4.33;;;29.90;32.00;;;;;;4974408;28;20454;-51
2021/08/25 12:00:24;;;;;;;5.40;4.83;;;30.20;30.70;;;;;;4975011;28;20450;-51
2021/08/25 12:02:58;;;;;;;5.50;5.00;;;30.30;30.20;;;;;;4973210;28;20520;-49
2021/08/25 12:05:54;;;;;;;5.43;4.63;;;30.50;30.70;;;;;;4974689;28;20443;-51
2021/08/25 12:08:20;;;;;;;5.60;4.83;;;30.70;32.40;;;;;;4973918;28;20438;-47
2021/08/25 12:11:09;;;;;;;5.40;4.90;;;30.50;31.30;;;;;;4974842;28;20435;-47
2021/08/25 12:13:42;;;;;;;5.03;4.53;;;30.60;31.10;;;;;;4979427;28;20488;-48
2021/08/25 12:16:18;;;;;;;4.10;3.70;;;30.70;30.50;;;;;;4993726;28;20946;-48
2021/08/25 12:18:52;;;;;;;5.30;4.80;;;30.00;31.10;;;;;;4986703;28;20565;-49
2021/08/25 12:21:18;;;;;;;5.40;4.80;;;29.90;30.40;;;;;;4989379;28;20450;-48
2021/08/25 12:23:54;;;;;;;5.13;4.67;;;30.30;29.70;;;;;;4993763;28;20543;-51
2021/08/25 12:26:20;;;;;;;5.73;5.10;;;30.80;29.70;;;;;;4993928;28;20793;-49
2021/08/25 12:28:46;;;;;;;5.27;4.77;;;30.50;29.70;;;;;;4992203;28;20438;-50
2021/08/25 12:31:24;;;;;;;5.40;4.90;;;30.30;30.00;;;;;;4994180;28;20647;-48
2021/08/25 12:33:54;;;;;;;5.30;4.53;;;30.20;31.20;;;;;;4993576;28;20190;-48
2021/08/25 12:36:29;;;;;;;5.17;4.70;;;30.50;34.20;;;;;;4994116;28;20481;-48
2021/08/25 12:39:09;;;;;;;6.40;5.30;;;30.90;32.70;;;;;;4993578;28;20524;-49
2021/08/25 12:41:40;;;;;;;5.57;5.07;;;31.30;32.60;;;;;;4992692;28;20922;-49
2021/08/25 12:44:07;;;;;;;5.07;4.53;;;31.00;31.20;;;;;;4992705;28;20508;-48